Corlu, Turkey

11:07 AM EEST on August 04, 2015 (GMT +0300)
Corlu Air Base | | Change Station
CLOSE
Current Station
Airport
Location: Corlu,
Elevation: 568 ft
Nearby Weather Stations

Elev 568 ft 41.14 °N, 27.92 °E | Updated 17 minutes ago

Clear
Clear
84 °F
Feels Like 85 °F
N
10
Wind Variable Wind from North

Today
High -- | Low -- °F
--% Chance of Precip.
Yesterday
High -- | Low -- °F
Precip. -- in
6:06 AM 8:21 PM
Waning Gibbous, 80% visible
Pressure 29.95 in
Visibility -9999.0 miles
Clouds
Heat Index 85 °F
Dew Point 63 °F
Humidity 48%
Rainfall 0.00 in
Snow Depth Not available.
UV Not available.
Pollen Not available.
Air Quality Not available.
Flu Activity Not available.
METAR LTBU 040750Z 01009KT 320V050 CAVOK 29/17 Q1014

More Conditions Fewer Conditions

Pressure 29.95 in
Visibility -9999.0 miles
Clouds
Heat Index 85 °F
Dew Point 63 °F
Humidity 48%
Rainfall 0.00 in
Snow Depth Not available.
UV Not available.
Pollen Not available.
Air Quality Not available.
Flu Activity Not available.
METAR LTBU 040750Z 01009KT 320V050 CAVOK 29/17 Q1014

More Conditions Fewer Conditions

10-Day Weather Forecast

×

Almanac

Astronomy

Aug. 04, 2015 Rise Set
Actual Time
Civil Twilight
Nautical Twilight
Astronomical Twilight
Moon
Length of Visible Light
Length of Day
Tomorrow will be .
, % of the Moon is Illuminated

Today's Extremes

Country Highs Country Lows

Community

WunderPhotos

Upload Photos

1,843,877 photos uploaded!

WunderBlogs® & News

Nearby

Air Quality

  Air Quality AQ Index Pollutant
Not available.

Snow Depth

Station Depth Elevation

Earthquake Activity

City Distance Mag. Time & Date
Minimum magnitude displayed is 2.5.

Coastal Water Temperatures

Place Temperature

Stations

Nearby Weather Stations

Station Location Temp. Windchill Dew Point Humidity Wind Precip. Elev Updated Type